createdAt,value
2024-02-06T00:02:18.892Z,9.20
2024-02-06T00:04:45.984Z,9.20
2024-02-06T00:07:20.432Z,9.30
2024-02-06T00:09:55.511Z,9.30
2024-02-06T00:12:22.390Z,9.30
2024-02-06T00:14:49.267Z,9.30
2024-02-06T00:17:16.166Z,9.30
2024-02-06T00:19:43.166Z,9.30
2024-02-06T00:22:10.208Z,9.30
2024-02-06T00:24:37.195Z,9.30
2024-02-06T00:27:04.482Z,9.30
2024-02-06T00:29:31.361Z,9.30
2024-02-06T00:31:58.214Z,9.30
2024-02-06T00:34:25.191Z,9.30
2024-02-06T00:36:52.302Z,9.30
2024-02-06T00:39:20.733Z,9.30
2024-02-06T00:41:47.690Z,9.30
2024-02-06T00:44:14.667Z,9.40
2024-02-06T00:46:41.620Z,9.40
2024-02-06T00:49:08.834Z,9.40
2024-02-06T00:51:36.826Z,9.40
2024-02-06T00:54:06.765Z,9.40
2024-02-06T00:56:33.700Z,9.30
2024-02-06T00:59:01.785Z,9.40
2024-02-06T01:01:28.755Z,9.40
2024-02-06T01:03:55.776Z,9.40
2024-02-06T01:06:22.986Z,9.40
2024-02-06T01:08:50.537Z,9.50
2024-02-06T01:11:17.774Z,9.50
2024-02-06T01:13:44.959Z,9.50
2024-02-06T01:16:12.177Z,9.50
2024-02-06T01:18:39.432Z,9.60
2024-02-06T01:21:06.558Z,9.60
2024-02-06T01:23:33.544Z,9.50
2024-02-06T01:26:01.092Z,9.60
2024-02-06T01:28:28.194Z,9.60
2024-02-06T01:30:55.249Z,9.60
2024-02-06T01:33:22.455Z,9.60
2024-02-06T01:35:49.584Z,9.60
2024-02-06T01:38:18.719Z,9.60
2024-02-06T01:40:45.864Z,9.70
2024-02-06T01:43:14.224Z,9.70
2024-02-06T01:45:41.900Z,9.70
2024-02-06T01:48:12.403Z,9.70
2024-02-06T01:50:42.724Z,9.70
2024-02-06T01:53:10.035Z,9.70
2024-02-06T01:55:37.370Z,9.70
2024-02-06T01:58:05.571Z,9.80
2024-02-06T02:00:34.441Z,9.80
2024-02-06T02:03:02.308Z,9.80
2024-02-06T02:05:30.154Z,9.80
2024-02-06T02:07:57.315Z,9.80
2024-02-06T02:10:24.257Z,9.80
2024-02-06T02:12:51.726Z,9.80
2024-02-06T02:15:18.812Z,9.80
2024-02-06T02:17:52.736Z,9.80
2024-02-06T02:20:19.861Z,9.80
2024-02-06T02:22:46.888Z,9.80
2024-02-06T02:25:14.158Z,9.80
2024-02-06T02:27:41.538Z,9.80
2024-02-06T02:30:09.749Z,9.80
2024-02-06T02:32:37.710Z,9.80
2024-02-06T02:35:05.220Z,9.80
2024-02-06T02:37:32.275Z,9.80
2024-02-06T02:39:59.488Z,9.80
2024-02-06T02:42:26.415Z,9.80
2024-02-06T02:44:53.339Z,9.80
2024-02-06T02:47:20.252Z,9.80
2024-02-06T02:49:47.165Z,9.80
2024-02-06T02:52:14.096Z,9.80
2024-02-06T02:54:41.242Z,9.80
2024-02-06T02:57:08.181Z,9.80
2024-02-06T02:59:35.128Z,9.80
2024-02-06T03:02:02.096Z,9.90
2024-02-06T03:04:29.430Z,9.80
2024-02-06T03:06:56.327Z,9.80
2024-02-06T03:09:23.282Z,9.90
2024-02-06T03:11:50.125Z,9.90
2024-02-06T03:14:17.052Z,9.90
2024-02-06T03:16:43.989Z,9.90
2024-02-06T03:19:11.324Z,9.90
2024-02-06T03:21:38.355Z,9.90
2024-02-06T03:24:06.336Z,9.80
2024-02-06T03:26:33.240Z,9.90
2024-02-06T03:29:00.537Z,9.90
2024-02-06T03:31:27.619Z,9.90
2024-02-06T03:33:55.004Z,10.00
2024-02-06T03:36:22.036Z,10.00
2024-02-06T03:38:49.109Z,10.00
2024-02-06T03:41:16.065Z,10.00
2024-02-06T03:43:44.714Z,10.00
2024-02-06T03:46:11.725Z,10.00
2024-02-06T03:48:38.984Z,10.00
2024-02-06T03:51:06.188Z,10.00
2024-02-06T03:53:34.165Z,10.00
2024-02-06T03:56:01.195Z,10.00
2024-02-06T03:58:28.249Z,10.00
2024-02-06T04:00:56.576Z,10.00
2024-02-06T04:03:24.385Z,10.00
2024-02-06T04:05:51.628Z,10.10
2024-02-06T04:08:18.702Z,10.10
2024-02-06T04:10:45.884Z,10.10
2024-02-06T04:13:12.889Z,10.10
2024-02-06T04:15:39.952Z,10.10
2024-02-06T04:18:07.405Z,10.20
2024-02-06T04:20:34.556Z,10.10
2024-02-06T04:23:02.044Z,10.10
2024-02-06T04:25:29.386Z,10.20
2024-02-06T04:27:56.469Z,10.20
2024-02-06T04:30:24.289Z,10.20
2024-02-06T04:32:52.923Z,10.10
2024-02-06T04:35:20.628Z,10.20
2024-02-06T04:37:47.895Z,10.20
2024-02-06T04:40:15.243Z,10.20
2024-02-06T04:42:42.307Z,10.20
2024-02-06T04:45:10.363Z,10.20
2024-02-06T04:47:37.423Z,10.20
2024-02-06T04:50:07.592Z,10.20
2024-02-06T04:52:38.508Z,10.20
2024-02-06T04:55:08.817Z,10.10
2024-02-06T04:57:35.901Z,10.10
2024-02-06T05:00:07.670Z,10.10
2024-02-06T05:02:34.611Z,10.20
2024-02-06T05:05:01.584Z,10.10
2024-02-06T05:07:29.660Z,10.10
2024-02-06T05:09:56.666Z,10.20
2024-02-06T05:12:25.362Z,10.20
2024-02-06T05:14:52.669Z,10.20
2024-02-06T05:17:22.320Z,10.20
2024-02-06T05:19:49.951Z,10.20
2024-02-06T05:22:17.069Z,10.20
2024-02-06T05:24:46.526Z,10.20
2024-02-06T05:27:15.328Z,10.10
2024-02-06T05:29:42.771Z,10.10
2024-02-06T05:32:09.713Z,10.10
2024-02-06T05:34:36.756Z,10.10
2024-02-06T05:37:04.016Z,10.10
2024-02-06T05:39:31.077Z,10.10
2024-02-06T05:41:58.915Z,10.10
2024-02-06T05:44:25.873Z,10.10
2024-02-06T05:46:52.821Z,10.10
2024-02-06T05:49:20.093Z,10.20
2024-02-06T05:51:47.336Z,10.20
2024-02-06T05:54:14.287Z,10.20
2024-02-06T05:56:41.257Z,10.20
2024-02-06T05:59:09.124Z,10.20
2024-02-06T06:01:36.570Z,10.30
2024-02-06T06:04:03.758Z,10.20
2024-02-06T06:06:31.046Z,10.20
2024-02-06T06:08:58.136Z,10.20
2024-02-06T06:11:25.066Z,10.20
2024-02-06T06:13:52.096Z,10.20
2024-02-06T06:16:19.083Z,10.20
2024-02-06T06:18:46.015Z,10.20
2024-02-06T06:21:12.979Z,10.10
2024-02-06T06:23:39.945Z,10.20
2024-02-06T06:26:10.083Z,10.20
2024-02-06T06:28:36.982Z,10.30
2024-02-06T06:31:06.703Z,10.20
2024-02-06T06:33:33.822Z,10.20
2024-02-06T06:36:00.747Z,10.30
2024-02-06T06:38:27.743Z,10.30
2024-02-06T06:40:54.756Z,10.30
2024-02-06T06:43:21.777Z,10.30
2024-02-06T06:45:48.690Z,10.40
2024-02-06T06:48:15.742Z,10.30
2024-02-06T06:50:43.058Z,10.30
2024-02-06T06:53:10.327Z,10.40
2024-02-06T06:55:37.290Z,10.40
2024-02-06T06:58:04.513Z,10.40
2024-02-06T07:00:33.092Z,10.40
2024-02-06T07:03:00.086Z,10.50
2024-02-06T07:05:27.042Z,10.50
2024-02-06T07:07:53.918Z,10.50
2024-02-06T07:10:20.901Z,10.50
2024-02-06T07:12:47.827Z,10.50
2024-02-06T07:15:14.795Z,10.50
2024-02-06T07:17:42.878Z,10.50
2024-02-06T07:20:10.694Z,10.50
2024-02-06T07:22:37.775Z,10.50
2024-02-06T07:25:06.402Z,10.50
2024-02-06T07:27:33.947Z,10.50
2024-02-06T07:30:03.501Z,10.50
2024-02-06T07:32:31.569Z,10.40
2024-02-06T07:34:58.613Z,10.50
2024-02-06T07:37:25.969Z,10.50
2024-02-06T07:39:52.830Z,10.40
2024-02-06T07:42:20.545Z,10.40
2024-02-06T07:44:47.812Z,10.50
2024-02-06T07:47:14.736Z,10.50
2024-02-06T07:49:41.769Z,10.50
2024-02-06T07:52:08.700Z,10.50
2024-02-06T07:54:35.628Z,10.60
2024-02-06T07:57:02.596Z,10.60
2024-02-06T07:59:29.719Z,10.60
2024-02-06T08:01:57.814Z,10.60
2024-02-06T08:04:24.830Z,10.60
2024-02-06T08:06:51.870Z,10.60
2024-02-06T08:09:19.894Z,10.60
2024-02-06T08:11:47.317Z,10.60
2024-02-06T08:14:15.279Z,10.60
2024-02-06T08:16:42.401Z,10.60
2024-02-06T08:19:10.036Z,10.60
2024-02-06T08:21:37.124Z,10.60
2024-02-06T08:24:05.595Z,10.70
2024-02-06T08:26:32.534Z,10.70
2024-02-06T08:28:59.491Z,10.70
2024-02-06T08:31:26.491Z,10.80
2024-02-06T08:33:53.480Z,10.80
2024-02-06T08:36:20.627Z,10.80
2024-02-06T08:38:47.998Z,10.80
2024-02-06T08:41:14.972Z,10.90
2024-02-06T08:43:49.652Z,10.90
2024-02-06T08:46:22.804Z,10.90
2024-02-06T08:48:49.988Z,10.90
2024-02-06T08:51:16.888Z,10.90
2024-02-06T08:53:43.830Z,11.00
2024-02-06T08:56:11.335Z,11.00
2024-02-06T08:58:38.473Z,11.00
2024-02-06T09:01:07.547Z,11.00
2024-02-06T09:03:34.942Z,11.10
2024-02-06T09:06:01.931Z,11.20
2024-02-06T09:08:28.893Z,11.10
2024-02-06T09:10:55.911Z,11.10
2024-02-06T09:13:25.498Z,11.10
2024-02-06T09:15:52.802Z,11.10
2024-02-06T09:18:40.571Z,11.10
2024-02-06T09:21:12.180Z,11.10
2024-02-06T09:23:44.613Z,11.20
2024-02-06T09:26:14.482Z,11.20
2024-02-06T09:29:55.895Z,11.30
2024-02-06T09:33:26.315Z,11.20
2024-02-06T09:36:06.057Z,11.10
2024-02-06T09:38:56.486Z,11.00
2024-02-06T09:41:38.358Z,10.90
2024-02-06T09:44:09.968Z,10.80
2024-02-06T09:46:39.823Z,10.80
2024-02-06T09:49:10.962Z,10.80
2024-02-06T09:52:15.770Z,10.70
2024-02-06T09:55:07.545Z,10.70
2024-02-06T09:57:49.284Z,10.60
2024-02-06T10:00:25.207Z,10.40
2024-02-06T10:03:41.809Z,10.40
2024-02-06T10:07:01.260Z,10.40
2024-02-06T10:10:20.934Z,10.50
2024-02-06T10:12:53.024Z,10.50
2024-02-06T10:15:30.011Z,10.60
2024-02-06T10:18:12.028Z,10.60
2024-02-06T10:20:52.525Z,10.80
2024-02-06T10:23:41.446Z,10.80
2024-02-06T10:26:31.834Z,10.90
2024-02-06T10:30:42.398Z,10.90
2024-02-06T10:33:29.859Z,11.00
2024-02-06T10:36:17.676Z,10.90
2024-02-06T10:39:02.864Z,10.90
2024-02-06T10:42:37.794Z,10.90
2024-02-06T10:45:04.119Z,10.90
2024-02-06T10:48:04.091Z,11.00
2024-02-06T10:50:34.924Z,10.90
2024-02-06T10:53:19.054Z,10.90
2024-02-06T10:56:20.864Z,10.90
2024-02-06T10:59:31.218Z,10.90
2024-02-06T11:02:00.555Z,10.90
2024-02-06T11:04:31.217Z,10.90
2024-02-06T11:07:06.688Z,10.90
2024-02-06T11:09:39.704Z,11.00
2024-02-06T11:12:12.158Z,11.10
2024-02-06T11:14:44.740Z,11.10
2024-02-06T11:17:13.661Z,11.10
2024-02-06T11:19:52.830Z,11.10
2024-02-06T11:22:27.178Z,11.10
2024-02-06T11:24:56.538Z,11.00
2024-02-06T11:27:23.993Z,11.10
2024-02-06T11:29:52.353Z,11.10
2024-02-06T11:32:20.361Z,11.20
2024-02-06T11:34:53.395Z,11.20
2024-02-06T11:37:29.079Z,11.10
2024-02-06T11:40:16.986Z,11.10
2024-02-06T11:42:46.256Z,11.00
2024-02-06T11:45:52.984Z,10.90
2024-02-06T11:48:27.638Z,10.80
2024-02-06T11:50:55.109Z,10.80
2024-02-06T11:53:27.419Z,10.90
2024-02-06T11:56:05.404Z,10.90
2024-02-06T11:58:38.146Z,11.00
2024-02-06T12:01:12.783Z,11.00
2024-02-06T12:03:42.211Z,11.10
2024-02-06T12:07:34.165Z,11.10
2024-02-06T12:10:57.182Z,11.20
2024-02-06T12:13:40.166Z,11.10
2024-02-06T12:29:12.164Z,11.10
2024-02-06T12:32:25.570Z,11.10
2024-02-06T12:35:41.199Z,11.10
2024-02-06T12:50:48.239Z,11.40
2024-02-06T12:54:20.971Z,11.50
2024-02-06T13:01:35.214Z,11.70
2024-02-06T13:05:01.331Z,11.70
2024-02-06T13:09:05.300Z,11.60
2024-02-06T13:12:14.379Z,11.60
2024-02-06T13:15:21.604Z,11.70
2024-02-06T13:18:16.343Z,11.70
2024-02-06T13:20:47.419Z,11.70
2024-02-06T13:23:38.523Z,11.70
2024-02-06T13:50:10.265Z,11.80
2024-02-06T13:53:27.423Z,11.70
2024-02-06T14:00:28.375Z,11.70
2024-02-06T14:03:01.304Z,11.80
2024-02-06T14:05:29.609Z,11.80
2024-02-06T14:07:59.989Z,11.80
2024-02-06T14:10:27.588Z,11.90
2024-02-06T14:12:54.662Z,12.00
2024-02-06T14:15:23.401Z,11.90
2024-02-06T14:17:50.370Z,12.00
2024-02-06T14:20:17.886Z,12.00
2024-02-06T14:22:50.700Z,12.10
2024-02-06T14:25:18.264Z,12.00
2024-02-06T14:27:45.594Z,12.00
2024-02-06T14:30:13.269Z,12.10
2024-02-06T14:32:40.136Z,12.10
2024-02-06T14:35:07.288Z,12.10
2024-02-06T14:37:34.516Z,12.10
2024-02-06T14:40:01.613Z,12.10
2024-02-06T14:42:28.755Z,12.10
2024-02-06T14:44:55.657Z,12.10
2024-02-06T14:47:28.525Z,12.00
2024-02-06T14:49:58.268Z,12.00
2024-02-06T14:52:25.230Z,11.90
2024-02-06T14:54:53.633Z,11.90
2024-02-06T14:57:23.167Z,11.90
2024-02-06T14:59:55.554Z,11.90
2024-02-06T15:02:27.982Z,11.90
2024-02-06T15:04:55.208Z,11.80
2024-02-06T15:07:30.142Z,11.70
2024-02-06T15:09:57.774Z,11.50
2024-02-06T15:12:38.322Z,11.30
2024-02-06T15:15:08.946Z,11.20
2024-02-06T15:17:36.111Z,11.10
2024-02-06T15:20:06.669Z,10.80
2024-02-06T15:22:33.696Z,10.60
2024-02-06T15:25:00.712Z,10.60
2024-02-06T15:27:27.590Z,10.60
2024-02-06T15:29:54.421Z,10.50
2024-02-06T15:32:28.936Z,10.50
2024-02-06T15:34:59.576Z,10.40
2024-02-06T15:37:26.471Z,10.30
2024-02-06T15:39:54.084Z,10.30
2024-02-06T15:42:25.246Z,10.20
2024-02-06T15:44:54.997Z,10.20
2024-02-06T15:47:21.890Z,10.30
2024-02-06T15:49:48.864Z,10.30
2024-02-06T15:52:18.348Z,10.30
2024-02-06T15:54:47.764Z,10.30
2024-02-06T15:57:14.641Z,10.30
2024-02-06T15:59:44.033Z,10.40
2024-02-06T16:02:20.449Z,10.40
2024-02-06T16:04:47.661Z,10.50
2024-02-06T16:07:25.672Z,10.50
2024-02-06T16:09:55.180Z,10.60
2024-02-06T16:12:34.142Z,10.60
2024-02-06T16:15:08.913Z,10.60
2024-02-06T16:17:43.425Z,10.60
2024-02-06T16:20:28.893Z,10.70
2024-02-06T16:22:58.017Z,10.70
2024-02-06T16:25:31.161Z,10.70
2024-02-06T16:27:58.213Z,10.70
2024-02-06T16:30:28.271Z,10.80
2024-02-06T16:33:17.868Z,10.80
2024-02-06T16:36:00.868Z,10.80
2024-02-06T16:38:28.177Z,10.80
2024-02-06T16:40:55.510Z,10.80
2024-02-06T17:13:28.811Z,11.20
2024-02-06T17:16:00.045Z,11.20
2024-02-06T17:26:28.487Z,11.30
2024-02-06T17:34:30.848Z,11.30
2024-02-06T17:37:17.004Z,11.40
2024-02-06T17:39:49.558Z,11.40
2024-02-06T17:42:18.457Z,11.30
2024-02-06T17:44:46.733Z,11.40
2024-02-06T17:52:10.974Z,11.30
2024-02-06T18:11:35.426Z,11.50
2024-02-06T18:18:22.320Z,11.50
2024-02-06T18:21:10.306Z,11.50
2024-02-06T18:24:36.232Z,11.50
2024-02-06T18:27:25.910Z,11.50
2024-02-06T18:33:51.194Z,11.60
2024-02-06T18:36:27.977Z,11.60
2024-02-06T18:39:27.855Z,11.60
2024-02-06T18:42:48.792Z,11.60
2024-02-06T18:45:45.988Z,11.70
2024-02-06T18:48:20.362Z,11.70
2024-02-06T18:55:20.334Z,11.80
2024-02-06T19:31:20.291Z,11.60
2024-02-06T19:33:55.559Z,11.70
2024-02-06T19:36:22.750Z,11.80
2024-02-06T19:38:49.766Z,11.80
2024-02-06T19:41:16.835Z,11.80
2024-02-06T19:43:43.991Z,11.80
2024-02-06T19:46:11.677Z,11.80
2024-02-06T19:48:39.582Z,11.70
2024-02-06T19:51:06.782Z,11.80
2024-02-06T19:53:34.404Z,11.80
2024-02-06T19:56:02.121Z,11.70
2024-02-06T19:58:29.230Z,11.80
2024-02-06T20:00:56.382Z,11.80
2024-02-06T20:03:23.544Z,11.80
2024-02-06T20:05:52.594Z,11.80
2024-02-06T20:08:21.926Z,11.80
2024-02-06T20:10:49.037Z,11.80
2024-02-06T20:13:27.276Z,11.90
2024-02-06T20:19:10.308Z,11.90
2024-02-06T20:30:30.215Z,11.90
2024-02-06T20:33:09.425Z,11.80
2024-02-06T20:35:48.383Z,11.90
2024-02-06T20:38:33.991Z,11.90
2024-02-06T20:41:28.048Z,11.90
2024-02-06T20:44:02.964Z,11.90
2024-02-06T20:46:34.246Z,11.90
2024-02-06T20:49:04.650Z,11.90
2024-02-06T20:55:51.278Z,11.80
2024-02-06T20:58:20.769Z,11.80
2024-02-06T21:01:00.658Z,11.80
2024-02-06T21:03:36.313Z,11.90
2024-02-06T21:06:44.327Z,11.90
2024-02-06T21:09:26.791Z,11.90
2024-02-06T21:11:59.756Z,11.90
2024-02-06T21:14:45.558Z,11.90
2024-02-06T21:17:56.644Z,11.90
2024-02-06T21:20:32.997Z,12.00
2024-02-06T21:31:55.418Z,12.10
2024-02-06T21:34:31.236Z,12.00
2024-02-06T21:37:04.515Z,12.00
2024-02-06T21:44:44.722Z,12.00
2024-02-06T21:56:42.430Z,12.20
2024-02-06T22:19:28.231Z,12.20
2024-02-06T22:22:32.846Z,12.30
2024-02-06T22:25:10.618Z,12.30
2024-02-06T22:27:39.317Z,12.30
2024-02-06T22:30:07.361Z,12.30
2024-02-06T22:32:34.453Z,12.30
2024-02-06T22:35:01.717Z,12.20
2024-02-06T22:37:28.773Z,12.20
2024-02-06T22:39:55.748Z,12.20
2024-02-06T22:42:22.663Z,12.20
2024-02-06T22:44:49.643Z,12.20
2024-02-06T22:47:17.690Z,12.10
2024-02-06T22:49:45.065Z,12.10
2024-02-06T22:52:13.523Z,12.10
2024-02-06T22:54:40.493Z,12.00
2024-02-06T22:57:07.408Z,12.00
2024-02-06T22:59:34.463Z,12.00
2024-02-06T23:02:01.525Z,11.90
2024-02-06T23:04:28.803Z,11.90
2024-02-06T23:06:56.018Z,11.90
2024-02-06T23:09:23.298Z,11.80
2024-02-06T23:11:51.274Z,11.80
2024-02-06T23:14:18.318Z,11.80
2024-02-06T23:16:45.834Z,11.70
2024-02-06T23:19:13.266Z,11.70
2024-02-06T23:21:40.408Z,11.60
2024-02-06T23:24:07.798Z,11.60
2024-02-06T23:26:35.174Z,11.60
2024-02-06T23:29:02.107Z,11.60
2024-02-06T23:31:29.150Z,11.50
2024-02-06T23:33:56.148Z,11.50
2024-02-06T23:36:23.205Z,11.40
2024-02-06T23:39:03.574Z,11.30
2024-02-06T23:41:37.409Z,11.40
2024-02-06T23:44:04.977Z,11.40
2024-02-06T23:46:31.968Z,11.40
2024-02-06T23:49:00.354Z,11.30
2024-02-06T23:51:28.760Z,11.20
2024-02-06T23:53:55.761Z,11.20
2024-02-06T23:56:22.695Z,11.10
2024-02-06T23:58:50.135Z,11.10
